Campiña-No se requiere un especial cuidado respecto a la situación meteorológica.   -   No hay avisos

Informes METAR

 

LEZL - Sevilla, Spain
Distancia de la estación: ENE 8km
Actualización: 20/08/2019 16:30
Despejado
Despejado
 Viento de O
Viento: O 7 km/h
Temperatura: 33°C
Rocío: 2°C
Humedad: 14%
Barómetro: 1014 hPa
Resumen: Despejado
Visibilidad: mayor de 10 km
2019/08/20 14:30 LEZL 201430Z 27004KT 210V360 CAVOK 33/02 Q1014 NOSIG
LEMO - Morón, Spain
Distancia de la estación: SE 43km
Actualización: 20/08/2019 17:00
Despejado
Despejado
 Viento de variable
Viento: variable 9 km/h
Temperatura: 33°C
Rocío: 4°C
Humedad: 16%
Barómetro: 1014 hPa
Resumen: Despejado
Visibilidad: mayor de 10 km
2019/08/20 15:00 LEMO 201500Z VRB05KT CAVOK 33/04 Q1014 NOSIG
LEJR - Jeréz, Spain
Distancia de la estación: S 71km
Actualización: 20/08/2019 17:00
Despejado
Despejado
 Viento de OSO
Viento: OSO 15 km/h
Temperatura: 32°C
Rocío: 3°C
Humedad: 16%
Barómetro: 1015 hPa
Resumen: Despejado
Visibilidad: mayor de 10 km
2019/08/20 15:00 LEJR 201500Z 24008KT 210V300 CAVOK 32/03 Q1015
 
LERT - Rota, Spain
Distancia de la estación: SSO 89km
Actualización: 20/08/2019 17:00
Despejado
Despejado
 Viento de O
Viento: O 20 km/h
Temperatura: 24°C
Rocío: 17°C
Humedad: 65%
Barómetro: 1015 hPa
Resumen: Despejado
Visibilidad: mayor de 10 km
2019/08/20 15:00 LERT 201500Z 27011KT 240V320 CAVOK 24/17 Q1015 NOSIG
LEMG - Málaga, Spain
Distancia de la estación: ESE 157km
Actualización: 20/08/2019 17:00
Poco nuboso
Poco nuboso
 Viento de ESE
Viento: ESE 17 km/h
Temperatura: 28°C
índice de calor: 30°C
Rocío: 22°C
Humedad: 70%
Barómetro: 1015 hPa
Nubes: Poco nuboso
Visibilidad: 10 km
Detalles de las nubes: Poco nuboso 914 m
2019/08/20 15:00 LEMG 201500Z 12009KT 100V160 9999 FEW030 28/22 Q1015 NOSIG
LEBA - Córdoba, Spain
Distancia de la estación: ENE 115km
Actualización: 20/08/2019 17:00
Despejado
Despejado
 Viento de O
Viento: O 7 km/h
Temperatura: 35°C
Rocío: 1°C
Humedad: 11%
Barómetro: 1013 hPa
Resumen: Despejado
Visibilidad: mayor de 10 km
2019/08/20 15:00 LEBA 201500Z 28004KT 230V340 CAVOK 35/01 Q1013
 
LEGR - Granada, Spain
Distancia de la estación: E 198km
Actualización: 20/08/2019 17:00
Poco nuboso
Poco nuboso
 Viento de ONO
Viento: ONO 9 km/h, Racha: 28 km/h
Temperatura: 35°C
Rocío: 6°C
Humedad: 16%
Barómetro: 1016 hPa
Nubes: Poco nuboso
Visibilidad: 10 km
Detalles de las nubes: Poco nuboso 1524 m
2019/08/20 15:00 LEGR 201500Z 29005G15KT 260V010 9999 FEW050 35/06 Q1016
LEAM - Almería, Spain
Distancia de la estación: E 326km
Actualización: 20/08/2019 17:00
Poco nuboso
Poco nuboso
 Viento de SSO
Viento: SSO 9 km/h
Temperatura: 28°C
índice de calor: 31°C
Rocío: 23°C
Humedad: 74%
Barómetro: 1015 hPa
Nubes: Poco nuboso
Visibilidad: 10 km
Detalles de las nubes: Poco nuboso 762 m
2019/08/20 15:00 LEAM 201500Z 20005KT 160V250 9999 FEW025 28/23 Q1015
LEMD - Madrid/Barajas, Spain
Distancia de la estación: NNE 402km
Actualización: 20/08/2019 17:00
Despejado
Despejado
 Viento de NNE
Viento: NNE 13 km/h
Temperatura: 30°C
Rocío: 11°C
Humedad: 31%
Barómetro: 1018 hPa
Resumen: Despejado
Visibilidad: mayor de 10 km
2019/08/20 15:00 LEMD 201500Z 03007KT 340V100 CAVOK 30/11 Q1018 NOSIG
 
LEVD - Valladolid, Spain
Distancia de la estación: N 492km
Actualización: 20/08/2019 17:00
Despejado
Despejado
 Viento de ENE
Viento: ENE 20 km/h
Temperatura: 24°C
Rocío: 8°C
Humedad: 36%
Barómetro: 1022 hPa
Resumen: Despejado
Visibilidad: mayor de 10 km
2019/08/20 15:00 LEVD 201500Z 06011KT 010V110 CAVOK 24/08 Q1022
LEBL - Barcelona, Spain
Distancia de la estación: NE 816km
Actualización: 20/08/2019 17:00
Poco nuboso
Poco nuboso
 Viento de ESE
Viento: ESE 19 km/h
Temperatura: 27°C
índice de calor: 28°C
Rocío: 19°C
Humedad: 62%
Barómetro: 1019 hPa
Nubes: Poco nuboso
Visibilidad: 10 km
Detalles de las nubes: Poco nuboso 762 m
2019/08/20 15:00 LEBL 201500Z 11010KT 090V150 9999 FEW025 27/19 Q1019 NOSIG
LEVC - Valencia, Spain
Distancia de la estación: ENE 535km
Actualización: 20/08/2019 17:00
Muy nuboso
Muy nuboso
 Viento de NE
Viento: NE 39 km/h
Temperatura: 27°C
índice de calor: 27°C
Rocío: 15°C
Humedad: 48%
Barómetro: 1018 hPa
Nubes: Muy nuboso
Visibilidad: 10 km
Detalles de las nubes: Muy nuboso 1372 m
2019/08/20 15:00 LEVC 201500Z 05021KT 020V100 9999 BKN045 27/15 Q1018 NOSIG